createdAt,value
2018-07-14T00:01:52.211Z,6.93
2018-07-14T00:04:21.537Z,7.67
2018-07-14T00:06:50.415Z,7.07
2018-07-14T00:09:19.516Z,8.03
2018-07-14T00:11:48.548Z,6.27
2018-07-14T00:14:17.394Z,6.67
2018-07-14T00:16:46.239Z,6.57
2018-07-14T00:19:15.312Z,6.00
2018-07-14T00:21:44.238Z,6.70
2018-07-14T00:24:13.144Z,6.67
2018-07-14T00:26:42.021Z,5.80
2018-07-14T00:29:11.148Z,5.90
2018-07-14T00:31:39.528Z,6.20
2018-07-14T00:34:08.504Z,6.70
2018-07-14T00:36:37.328Z,6.40
2018-07-14T00:39:07.286Z,7.87
2018-07-14T00:41:36.140Z,7.13
2018-07-14T00:44:05.032Z,6.30
2018-07-14T00:46:34.446Z,6.80
2018-07-14T00:49:03.306Z,7.47
2018-07-14T00:51:32.134Z,6.83
2018-07-14T00:54:00.967Z,7.03
2018-07-14T00:56:29.809Z,6.53
2018-07-14T00:58:58.642Z,7.10
2018-07-14T01:01:27.481Z,6.40
2018-07-14T01:03:56.233Z,7.30
2018-07-14T01:06:25.127Z,7.60
2018-07-14T01:08:54.035Z,6.77
2018-07-14T01:11:23.047Z,7.10
2018-07-14T01:13:51.883Z,7.30
2018-07-14T01:16:20.761Z,7.40
2018-07-14T01:18:50.049Z,7.57
2018-07-14T01:21:19.053Z,6.93
2018-07-14T01:23:47.963Z,6.90
2018-07-14T01:26:16.393Z,8.40
2018-07-14T01:28:45.249Z,8.30
2018-07-14T01:31:14.313Z,7.77
2018-07-14T01:33:43.113Z,7.77
2018-07-14T01:36:12.019Z,7.13
2018-07-14T01:38:40.833Z,7.53
2018-07-14T01:41:09.910Z,7.23
2018-07-14T01:43:38.259Z,8.70
2018-07-14T01:46:07.911Z,6.93
2018-07-14T01:48:36.769Z,7.57
2018-07-14T01:51:06.331Z,7.00
2018-07-14T01:53:35.217Z,6.73
2018-07-14T01:56:04.005Z,7.60
2018-07-14T01:58:32.883Z,6.87
2018-07-14T02:01:01.796Z,7.70
2018-07-14T02:03:30.714Z,8.20
2018-07-14T02:05:59.665Z,7.90
2018-07-14T02:08:28.587Z,7.80
2018-07-14T02:10:57.631Z,8.07
2018-07-14T02:13:26.547Z,7.90
2018-07-14T02:15:56.043Z,8.07
2018-07-14T02:18:36.621Z,8.13
2018-07-14T02:21:05.539Z,7.60
2018-07-14T02:23:34.447Z,7.30
2018-07-14T02:26:03.423Z,8.07
2018-07-14T02:28:32.303Z,8.20
2018-07-14T02:31:01.615Z,8.03
2018-07-14T02:33:30.441Z,8.80
2018-07-14T02:35:59.314Z,8.00
2018-07-14T02:38:28.369Z,8.53
2018-07-14T02:40:57.197Z,8.20
2018-07-14T02:43:26.081Z,8.87
2018-07-14T02:45:54.935Z,8.57
2018-07-14T02:48:23.898Z,9.17
2018-07-14T02:50:52.919Z,8.70
2018-07-14T02:53:21.837Z,9.17
2018-07-14T02:55:51.018Z,8.83
2018-07-14T02:58:19.849Z,8.40
2018-07-14T03:00:48.846Z,8.00
2018-07-14T03:03:18.180Z,8.03
2018-07-14T03:05:47.034Z,8.80
2018-07-14T03:08:16.250Z,9.00
2018-07-14T03:10:45.094Z,9.70
2018-07-14T03:13:14.091Z,9.03
2018-07-14T03:15:43.984Z,9.93
2018-07-14T03:18:12.836Z,9.27
2018-07-14T03:20:41.716Z,9.07
2018-07-14T03:23:10.642Z,8.07
2018-07-14T03:25:39.448Z,7.77
2018-07-14T03:28:08.366Z,8.83
2018-07-14T03:30:37.316Z,7.70
2018-07-14T03:33:06.640Z,7.77
2018-07-14T03:35:35.950Z,7.80
2018-07-14T03:38:04.831Z,7.67
2018-07-14T03:40:33.600Z,7.13
2018-07-14T03:43:02.662Z,7.63
2018-07-14T03:45:31.428Z,8.57
2018-07-14T03:48:00.212Z,8.60
2018-07-14T03:50:29.170Z,8.60
2018-07-14T03:52:58.079Z,8.57
2018-07-14T03:55:26.922Z,8.33
2018-07-14T03:57:55.722Z,8.20
2018-07-14T04:00:24.823Z,8.80
2018-07-14T04:02:53.716Z,8.50
2018-07-14T04:05:23.008Z,8.63
2018-07-14T04:07:51.760Z,9.40
2018-07-14T04:10:20.162Z,9.57
2018-07-14T04:12:49.016Z,8.27
2018-07-14T04:15:17.979Z,9.40
2018-07-14T04:17:51.072Z,7.73
2018-07-14T04:20:20.070Z,7.63
2018-07-14T04:22:48.873Z,9.37
2018-07-14T04:25:17.684Z,9.20
2018-07-14T04:27:46.702Z,8.20
2018-07-14T04:30:15.552Z,8.10
2018-07-14T04:32:44.514Z,8.97
2018-07-14T04:35:13.988Z,8.23
2018-07-14T04:37:42.912Z,8.70
2018-07-14T04:40:11.860Z,8.93
2018-07-14T04:42:40.346Z,9.00
2018-07-14T04:45:09.168Z,8.77
2018-07-14T04:47:37.980Z,9.07
2018-07-14T04:50:07.060Z,9.77
2018-07-14T04:52:36.211Z,9.57
2018-07-14T04:55:05.292Z,8.93
2018-07-14T04:57:34.143Z,8.27
2018-07-14T05:00:03.064Z,8.40
2018-07-14T05:02:32.085Z,8.60
2018-07-14T05:05:01.654Z,9.33
2018-07-14T05:07:30.851Z,8.50
2018-07-14T05:09:59.832Z,8.97
2018-07-14T05:12:28.850Z,8.27
2018-07-14T05:14:57.720Z,7.07
2018-07-14T05:17:26.546Z,6.60
2018-07-14T05:19:55.398Z,7.10
2018-07-14T05:22:24.288Z,6.80
2018-07-14T05:24:53.197Z,6.03
2018-07-14T05:27:22.046Z,5.73
2018-07-14T05:29:51.107Z,6.10
2018-07-14T05:32:19.961Z,5.40
2018-07-14T05:34:48.972Z,5.62
2018-07-14T05:37:17.848Z,5.22
2018-07-14T05:39:46.888Z,5.60
2018-07-14T05:42:15.831Z,6.10
2018-07-14T05:44:44.765Z,6.17
2018-07-14T05:47:13.622Z,4.97
2018-07-14T05:49:43.156Z,6.50
2018-07-14T05:52:12.164Z,6.33
2018-07-14T05:54:41.068Z,5.78
2018-07-14T05:57:09.765Z,5.53
2018-07-14T05:59:38.653Z,6.42
2018-07-14T06:02:08.205Z,6.67
2018-07-14T06:04:37.685Z,6.25
2018-07-14T06:07:06.791Z,6.37
2018-07-14T06:09:37.254Z,6.50
2018-07-14T06:12:06.970Z,7.05
2018-07-14T06:14:36.953Z,6.78
2018-07-14T06:17:06.878Z,6.97
2018-07-14T06:19:35.931Z,6.00
2018-07-14T06:22:04.326Z,7.00
2018-07-14T06:24:33.435Z,5.47
2018-07-14T06:27:02.448Z,5.85
2018-07-14T06:29:31.231Z,5.80
2018-07-14T06:32:01.026Z,5.90
2018-07-14T06:34:29.971Z,6.22
2018-07-14T06:36:58.702Z,6.62
2018-07-14T06:39:27.580Z,6.47
2018-07-14T06:41:56.859Z,5.60
2018-07-14T06:44:26.181Z,5.47
2018-07-14T06:46:55.060Z,5.45
2018-07-14T06:49:23.919Z,5.50
2018-07-14T06:51:52.901Z,6.45
2018-07-14T06:54:22.029Z,5.78
2018-07-14T06:56:51.258Z,5.70
2018-07-14T06:59:20.456Z,5.85
2018-07-14T07:01:49.922Z,5.53
2018-07-14T07:04:18.780Z,5.47
2018-07-14T07:06:47.735Z,6.10
2018-07-14T07:09:17.635Z,6.05
2018-07-14T07:11:46.610Z,6.90
2018-07-14T07:14:15.728Z,6.40
2018-07-14T07:16:44.556Z,5.90
2018-07-14T07:19:13.476Z,6.85
2018-07-14T07:21:42.379Z,6.33
2018-07-14T07:24:11.162Z,6.22
2018-07-14T07:26:39.611Z,6.53
2018-07-14T07:29:08.344Z,6.60
2018-07-14T07:31:37.264Z,7.60
2018-07-14T07:34:06.704Z,6.25
2018-07-14T07:36:35.490Z,6.87
2018-07-14T07:39:05.313Z,6.15
2018-07-14T07:41:34.746Z,6.10
2018-07-14T07:44:04.018Z,5.37
2018-07-14T07:46:33.109Z,5.83
2018-07-14T07:49:02.080Z,7.33
2018-07-14T07:51:31.179Z,6.75
2018-07-14T07:54:00.066Z,6.83
2018-07-14T07:56:39.383Z,5.90
2018-07-14T07:59:08.294Z,6.50
2018-07-14T08:01:37.095Z,6.53
2018-07-14T08:04:08.029Z,6.22
2018-07-14T08:06:36.998Z,7.80
2018-07-14T08:09:06.536Z,6.70
2018-07-14T08:11:35.378Z,6.70
2018-07-14T08:14:04.577Z,6.95
2018-07-14T08:16:34.129Z,6.90
2018-07-14T08:19:02.916Z,6.75
2018-07-14T08:21:31.640Z,6.83
2018-07-14T08:24:00.488Z,6.95
2018-07-14T08:26:29.506Z,6.67
2018-07-14T08:28:58.325Z,6.35
2018-07-14T08:31:27.165Z,6.80
2018-07-14T08:33:56.130Z,6.53
2018-07-14T08:36:25.014Z,7.12
2018-07-14T08:38:53.884Z,7.03
2018-07-14T08:41:22.810Z,7.37
2018-07-14T08:43:51.729Z,6.85
2018-07-14T08:46:20.548Z,7.10
2018-07-14T08:48:49.417Z,7.08
2018-07-14T08:51:19.375Z,6.92
2018-07-14T08:53:49.232Z,5.55
2018-07-14T08:56:18.048Z,6.87
2018-07-14T08:58:46.868Z,6.00
2018-07-14T09:01:15.741Z,5.70
2018-07-14T09:03:44.649Z,5.60
2018-07-14T09:06:13.682Z,6.22
2018-07-14T09:08:42.676Z,5.05
2018-07-14T09:11:11.608Z,4.80
2018-07-14T09:13:40.818Z,4.17
2018-07-14T09:16:10.362Z,4.45
2018-07-14T09:18:39.744Z,4.78
2018-07-14T09:21:08.840Z,4.15
2018-07-14T09:23:37.991Z,4.50
2018-07-14T09:26:14.114Z,5.28
2018-07-14T09:28:42.882Z,5.22
2018-07-14T09:31:11.666Z,5.05
2018-07-14T09:33:41.072Z,4.33
2018-07-14T09:36:10.163Z,3.50
2018-07-14T09:38:39.122Z,4.20
2018-07-14T09:41:07.735Z,4.50
2018-07-14T09:43:36.525Z,4.85
2018-07-14T09:46:06.059Z,4.25
2018-07-14T09:48:35.798Z,4.42
2018-07-14T09:51:05.560Z,4.10
2018-07-14T09:53:34.393Z,4.37
2018-07-14T09:56:03.159Z,4.47
2018-07-14T09:58:31.865Z,4.35
2018-07-14T10:01:06.062Z,3.65
2018-07-14T10:03:35.034Z,4.03
2018-07-14T10:06:03.931Z,4.72
2018-07-14T10:08:33.260Z,4.50
2018-07-14T10:11:02.152Z,4.10
2018-07-14T10:13:30.920Z,4.50
2018-07-14T10:15:59.762Z,4.25
2018-07-14T10:18:28.633Z,3.85
2018-07-14T10:20:57.541Z,3.62
2018-07-14T10:23:26.511Z,3.50
2018-07-14T10:25:55.426Z,3.47
2018-07-14T10:28:24.218Z,3.92
2018-07-14T10:30:53.127Z,3.37
2018-07-14T10:33:22.022Z,3.83
2018-07-14T10:35:50.795Z,3.80
2018-07-14T10:38:19.680Z,3.72
2018-07-14T10:40:48.540Z,3.52
2018-07-14T10:43:17.460Z,3.17
2018-07-14T10:45:46.582Z,3.80
2018-07-14T10:48:15.472Z,3.33
2018-07-14T10:50:44.478Z,3.60
2018-07-14T10:53:13.320Z,3.70
2018-07-14T10:55:42.157Z,3.90
2018-07-14T10:58:11.016Z,4.00
2018-07-14T11:00:39.958Z,4.15
2018-07-14T11:03:08.784Z,3.52
2018-07-14T11:05:37.734Z,3.72
2018-07-14T11:08:06.615Z,3.67
2018-07-14T11:10:35.699Z,3.33
2018-07-14T11:13:04.460Z,3.75
2018-07-14T11:15:33.342Z,3.52
2018-07-14T11:18:02.295Z,3.33
2018-07-14T11:20:31.117Z,3.20
2018-07-14T11:22:59.863Z,3.15
2018-07-14T11:25:28.673Z,3.58
2018-07-14T11:27:57.832Z,3.10
2018-07-14T11:30:26.744Z,3.52
2018-07-14T11:32:56.116Z,3.47
2018-07-14T11:35:25.334Z,3.40
2018-07-14T11:37:54.507Z,3.40
2018-07-14T11:40:23.254Z,3.00
2018-07-14T11:42:52.242Z,3.22
2018-07-14T11:45:21.413Z,3.22
2018-07-14T11:47:50.285Z,2.87
2018-07-14T11:50:19.120Z,3.12
2018-07-14T11:52:48.020Z,3.50
2018-07-14T11:55:16.906Z,3.40
2018-07-14T11:57:45.670Z,3.58
2018-07-14T12:00:15.074Z,3.45
2018-07-14T12:02:43.813Z,3.72
2018-07-14T12:05:12.664Z,3.75
2018-07-14T12:07:41.677Z,3.40
2018-07-14T12:10:10.300Z,3.45
2018-07-14T12:12:39.127Z,3.55
2018-07-14T12:15:08.142Z,3.67
2018-07-14T12:17:37.020Z,3.70
2018-07-14T12:20:06.497Z,3.67
2018-07-14T12:22:35.329Z,3.75
2018-07-14T12:25:03.685Z,3.70
2018-07-14T12:27:32.938Z,3.70
2018-07-14T12:30:01.584Z,3.87
2018-07-14T12:32:30.458Z,4.37
2018-07-14T12:34:59.401Z,3.33
2018-07-14T12:37:28.311Z,3.80
2018-07-14T12:39:57.099Z,3.75
2018-07-14T12:42:26.144Z,3.40
2018-07-14T12:44:55.040Z,3.62
2018-07-14T12:47:23.947Z,3.57
2018-07-14T12:49:52.920Z,3.22
2018-07-14T12:52:27.762Z,3.27
2018-07-14T12:54:56.591Z,3.42
2018-07-14T12:57:25.801Z,3.42
2018-07-14T12:59:55.545Z,3.27
2018-07-14T13:02:24.478Z,3.30
2018-07-14T13:04:53.301Z,3.45
2018-07-14T13:07:22.225Z,3.80
2018-07-14T13:09:50.728Z,2.98
2018-07-14T13:12:19.563Z,3.70
2018-07-14T13:14:48.434Z,3.20
2018-07-14T13:17:17.419Z,3.55
2018-07-14T13:19:46.324Z,3.80
2018-07-14T13:22:15.136Z,3.80
2018-07-14T13:24:43.969Z,3.80
2018-07-14T13:27:12.897Z,3.65
2018-07-14T13:29:41.803Z,3.77
2018-07-14T13:32:10.869Z,4.30
2018-07-14T13:34:39.725Z,3.87
2018-07-14T13:37:08.848Z,3.60
2018-07-14T13:39:37.838Z,3.70
2018-07-14T13:42:06.648Z,3.52
2018-07-14T13:44:35.586Z,3.80
2018-07-14T13:47:04.014Z,3.80
2018-07-14T13:49:32.949Z,3.50
2018-07-14T13:52:01.950Z,3.60
2018-07-14T13:54:30.887Z,3.30
2018-07-14T13:56:59.664Z,3.50
2018-07-14T13:59:28.470Z,3.15
2018-07-14T14:01:57.287Z,3.20
2018-07-14T14:04:26.296Z,3.75
2018-07-14T14:06:55.130Z,3.50
2018-07-14T14:09:24.053Z,3.55
2018-07-14T14:11:52.799Z,3.10
2018-07-14T14:14:21.999Z,3.30
2018-07-14T14:16:54.989Z,3.55
2018-07-14T14:19:23.799Z,3.70
2018-07-14T14:21:53.221Z,3.70
2018-07-14T14:24:22.261Z,3.45
2018-07-14T14:26:51.127Z,3.20
2018-07-14T14:29:20.061Z,3.45
2018-07-14T14:31:48.843Z,3.20
2018-07-14T14:34:17.609Z,2.72
2018-07-14T14:36:50.511Z,3.33
2018-07-14T14:39:19.461Z,3.22
2018-07-14T14:41:48.461Z,3.20
2018-07-14T14:44:17.315Z,3.35
2018-07-14T14:46:46.610Z,3.12
2018-07-14T14:49:15.418Z,3.00
2018-07-14T14:51:44.165Z,3.12
2018-07-14T14:54:13.269Z,3.58
2018-07-14T14:56:42.270Z,3.10
2018-07-14T14:59:11.208Z,3.08
2018-07-14T15:01:40.230Z,3.45
2018-07-14T15:04:09.167Z,3.47
2018-07-14T15:06:38.198Z,3.20
2018-07-14T15:09:07.507Z,3.10
2018-07-14T15:11:36.605Z,3.20
2018-07-14T15:14:05.489Z,3.02
2018-07-14T15:16:34.529Z,3.40
2018-07-14T15:19:03.685Z,3.27
2018-07-14T15:21:32.705Z,2.72
2018-07-14T15:24:07.127Z,3.35
2018-07-14T15:26:35.837Z,3.30
2018-07-14T15:29:05.083Z,2.90
2018-07-14T15:31:34.245Z,3.20
2018-07-14T15:34:03.041Z,2.72
2018-07-14T15:36:31.927Z,3.25
2018-07-14T15:39:00.713Z,3.02
2018-07-14T15:41:29.688Z,3.83
2018-07-14T15:44:03.346Z,3.67
2018-07-14T15:46:32.259Z,3.67
2018-07-14T15:49:00.963Z,3.60
2018-07-14T15:51:29.844Z,3.87
2018-07-14T15:53:58.699Z,3.85
2018-07-14T15:56:27.483Z,3.42
2018-07-14T15:58:56.325Z,3.92
2018-07-14T16:01:25.145Z,4.55
2018-07-14T16:03:53.931Z,10.35
2018-07-14T16:06:22.742Z,11.05
2018-07-14T16:08:51.516Z,5.08
2018-07-14T16:11:20.307Z,5.35
2018-07-14T16:13:49.310Z,7.17
2018-07-14T16:16:18.187Z,6.25
2018-07-14T16:18:47.130Z,4.30
2018-07-14T16:21:15.994Z,3.47
2018-07-14T16:23:44.880Z,3.20
2018-07-14T16:26:13.736Z,3.40
2018-07-14T16:28:42.589Z,3.35
2018-07-14T16:31:11.426Z,3.20
2018-07-14T16:33:40.220Z,3.30
2018-07-14T16:36:08.951Z,3.20
2018-07-14T16:38:37.938Z,2.80
2018-07-14T16:41:07.162Z,3.00
2018-07-14T16:43:36.021Z,3.27
2018-07-14T16:46:09.095Z,3.22
2018-07-14T16:48:38.250Z,3.00
2018-07-14T16:51:07.403Z,2.92
2018-07-14T16:53:36.298Z,2.80
2018-07-14T16:56:05.254Z,2.87
2018-07-14T16:58:33.980Z,3.00
2018-07-14T17:01:02.860Z,2.72
2018-07-14T17:03:31.592Z,2.80
2018-07-14T17:06:00.341Z,2.60
2018-07-14T17:08:29.150Z,2.70
2018-07-14T17:10:58.034Z,2.45
2018-07-14T17:13:26.988Z,2.58
2018-07-14T17:15:56.994Z,2.37
2018-07-14T17:18:25.973Z,2.67
2018-07-14T17:20:55.112Z,2.90
2018-07-14T17:23:37.859Z,2.62
2018-07-14T17:26:07.758Z,2.60
2018-07-14T17:28:36.793Z,2.25
2018-07-14T17:31:06.284Z,2.33
2018-07-14T17:33:35.088Z,3.37
2018-07-14T17:36:04.286Z,2.90
2018-07-14T17:38:33.482Z,2.92
2018-07-14T17:41:05.666Z,2.95
2018-07-14T17:43:34.606Z,2.67
2018-07-14T17:46:03.639Z,3.15
2018-07-14T17:48:32.858Z,3.20
2018-07-14T17:51:01.684Z,2.98
2018-07-14T17:53:30.512Z,2.72
2018-07-14T17:55:59.484Z,3.00
2018-07-14T17:58:28.394Z,2.60
2018-07-14T18:00:57.318Z,3.20
2018-07-14T18:03:26.122Z,2.50
2018-07-14T18:05:54.986Z,2.67
2018-07-14T18:08:23.702Z,3.17
2018-07-14T18:10:52.998Z,2.98
2018-07-14T18:13:21.798Z,2.55
2018-07-14T18:15:50.612Z,2.55
2018-07-14T18:18:19.753Z,2.67
2018-07-14T18:20:48.530Z,2.90
2018-07-14T18:23:17.380Z,2.70
2018-07-14T18:25:46.274Z,3.20
2018-07-14T18:28:15.164Z,3.00
2018-07-14T18:30:44.788Z,3.22
2018-07-14T18:33:13.542Z,3.33
2018-07-14T18:35:42.436Z,2.95
2018-07-14T18:38:11.488Z,3.30
2018-07-14T18:40:40.259Z,3.00
2018-07-14T18:43:08.678Z,2.92
2018-07-14T18:45:37.594Z,3.08
2018-07-14T18:48:06.402Z,3.42
2018-07-14T18:50:35.224Z,3.08
2018-07-14T18:53:04.059Z,3.22
2018-07-14T18:55:32.965Z,3.20
2018-07-14T18:58:01.871Z,3.47
2018-07-14T19:00:31.014Z,3.20
2018-07-14T19:02:59.865Z,3.30
2018-07-14T19:05:28.737Z,3.20
2018-07-14T19:07:57.644Z,3.13
2018-07-14T19:10:26.549Z,3.53
2018-07-14T19:12:55.435Z,3.50
2018-07-14T19:15:24.390Z,3.77
2018-07-14T19:17:53.374Z,3.30
2018-07-14T19:20:22.193Z,3.70
2018-07-14T19:22:51.243Z,3.73
2018-07-14T19:25:20.136Z,3.33
2018-07-14T19:27:49.032Z,3.83
2018-07-14T19:30:18.037Z,4.40
2018-07-14T19:32:46.955Z,4.20
2018-07-14T19:35:15.872Z,4.60
2018-07-14T19:37:44.856Z,4.20
2018-07-14T19:40:16.726Z,4.10
2018-07-14T19:42:45.800Z,4.47
2018-07-14T19:45:15.855Z,3.30
2018-07-14T19:47:45.116Z,4.63
2018-07-14T19:50:14.056Z,4.40
2018-07-14T19:52:44.092Z,4.00
2018-07-14T19:55:13.178Z,4.27
2018-07-14T19:57:42.041Z,3.53
2018-07-14T20:00:10.994Z,4.20
2018-07-14T20:02:40.103Z,4.17
2018-07-14T20:05:09.288Z,4.23
2018-07-14T20:07:43.160Z,4.37
2018-07-14T20:10:12.113Z,4.70
2018-07-14T20:12:41.393Z,4.87
2018-07-14T20:15:10.290Z,5.37
2018-07-14T20:17:39.275Z,5.80
2018-07-14T20:20:09.038Z,6.33
2018-07-14T20:22:38.229Z,6.53
2018-07-14T20:25:06.607Z,6.30
2018-07-14T20:27:35.136Z,6.30
2018-07-14T20:30:04.274Z,6.27
2018-07-14T20:32:33.646Z,8.13
2018-07-14T20:35:02.985Z,8.30
2018-07-14T20:37:38.278Z,7.90
2018-07-14T20:40:07.188Z,9.27
2018-07-14T20:42:36.092Z,8.50
2018-07-14T20:45:05.306Z,8.90
2018-07-14T20:47:34.326Z,8.03
2018-07-14T20:50:03.151Z,8.53
2018-07-14T20:52:32.118Z,8.30
2018-07-14T20:55:00.998Z,8.30
2018-07-14T20:57:30.334Z,8.10
2018-07-14T21:00:00.202Z,8.00
2018-07-14T21:02:29.036Z,7.83
2018-07-14T21:04:57.988Z,10.47
2018-07-14T21:07:26.768Z,9.73
2018-07-14T21:09:55.934Z,8.40
2018-07-14T21:12:24.914Z,8.33
2018-07-14T21:14:53.616Z,8.20
2018-07-14T21:17:22.550Z,8.33
2018-07-14T21:19:51.638Z,8.63
2018-07-14T21:22:20.562Z,9.30
2018-07-14T21:24:49.376Z,8.20
2018-07-14T21:27:18.150Z,7.93
2018-07-14T21:29:46.987Z,8.00
2018-07-14T21:32:15.511Z,8.90
2018-07-14T21:34:44.284Z,9.10
2018-07-14T21:37:13.172Z,9.30
2018-07-14T21:39:42.034Z,8.70
2018-07-14T21:42:10.460Z,8.77
2018-07-14T21:44:39.285Z,8.93
2018-07-14T21:47:08.104Z,9.77
2018-07-14T21:49:36.630Z,9.13
2018-07-14T21:52:05.482Z,8.37
2018-07-14T21:54:34.292Z,8.87
2018-07-14T21:57:03.122Z,8.70
2018-07-14T21:59:32.060Z,9.00
2018-07-14T22:02:04.529Z,8.60
2018-07-14T22:04:34.551Z,9.20
2018-07-14T22:07:03.437Z,8.07
2018-07-14T22:09:32.407Z,8.73
2018-07-14T22:12:01.330Z,8.90
2018-07-14T22:14:30.243Z,9.13
2018-07-14T22:16:58.973Z,8.70
2018-07-14T22:19:27.837Z,7.55
2018-07-14T22:21:57.720Z,7.90
2018-07-14T22:24:26.527Z,9.20
2018-07-14T22:26:55.490Z,8.50
2018-07-14T22:29:24.330Z,8.30
2018-07-14T22:31:53.187Z,7.90
2018-07-14T22:34:22.178Z,9.10
2018-07-14T22:36:51.019Z,8.87
2018-07-14T22:39:19.951Z,8.80
2018-07-14T22:41:49.653Z,8.40
2018-07-14T22:44:19.695Z,7.97
2018-07-14T22:46:48.809Z,9.17
2018-07-14T22:49:18.484Z,8.73
2018-07-14T22:51:47.248Z,8.23
2018-07-14T22:54:16.133Z,9.40
2018-07-14T22:56:45.051Z,10.17
2018-07-14T22:59:13.929Z,8.90
2018-07-14T23:01:42.837Z,8.47
2018-07-14T23:04:11.663Z,8.97
2018-07-14T23:06:40.523Z,8.23
2018-07-14T23:09:09.493Z,8.70
2018-07-14T23:11:38.608Z,8.37
2018-07-14T23:14:07.602Z,9.60
2018-07-14T23:16:36.379Z,8.70
2018-07-14T23:19:05.386Z,9.07
2018-07-14T23:21:34.810Z,8.90
2018-07-14T23:24:03.871Z,8.03
2018-07-14T23:26:32.689Z,8.80
2018-07-14T23:29:01.499Z,9.47
2018-07-14T23:31:30.343Z,9.40
2018-07-14T23:33:59.247Z,8.80
2018-07-14T23:36:28.179Z,9.57
2018-07-14T23:38:57.070Z,8.30
2018-07-14T23:41:25.826Z,9.40
2018-07-14T23:43:54.746Z,10.90
2018-07-14T23:46:23.886Z,10.67
2018-07-14T23:48:53.029Z,10.40
2018-07-14T23:51:22.168Z,9.90
2018-07-14T23:53:51.064Z,11.27
2018-07-14T23:56:19.956Z,10.43
2018-07-14T23:58:48.877Z,10.50
